Ogema, WI

10:14 PM CDT on September 19, 2014 (GMT -0500)
Downtown (BP station) | Change Station
CLOSE
Current Station
Personal Weather Station
Location: Phillips, WI
Elevation: 1470 ft
Nearby Weather Stations

Elev 1470 ft 45.69 °N, 90.40 °W | Updated 11 minutes ago

Overcast
Overcast
65.2 °F
Feels Like 65.2 °F
N
7.0
Wind Variable Wind from WSW
Gusts 19.0 mph

Today
High -- | Low -- °F
--% Chance of Precip.
Yesterday
High -- | Low -- °F
Precip. -- in
6:44 AM 7:04 PM
Waning Crescent, 15% visible
Pressure 29.71 in
Visibility 10.0 miles
Clouds Scattered Clouds 3000 ft
Scattered Clouds 4300 ft
Dew Point 58 °F
Humidity 78%
Rainfall 0.00 in
Snow Depth Not available.
UV 0 out of 12
Pollen 4.20 out of 12
Air Quality Not available.
Flu Activity Not available.
METAR KPBH 200255Z AUTO 21010G21KT 10SM SCT030 SCT043 18/14 A2971 RMK AO2 T01840141

More Conditions Fewer Conditions

Pressure 29.71 in
Visibility 10.0 miles
Clouds Scattered Clouds 3000 ft
Scattered Clouds 4300 ft
Dew Point 58 °F
Humidity 78%
Rainfall 0.00 in
Snow Depth Not available.
UV 0 out of 12
Pollen 4.20 out of 12
Air Quality Not available.
Flu Activity Not available.
METAR KPBH 200255Z AUTO 21010G21KT 10SM SCT030 SCT043 18/14 A2971 RMK AO2 T01840141

More Conditions Fewer Conditions

10-Day Weather Forecast

Almanac

Astronomy

Sep. 19, 2014 Rise Set
Actual Time 6:44 AM CDT 7:04 PM CDT
Civil Twilight 6:14 AM CDT 7:33 PM CDT
Nautical Twilight 5:39 AM CDT 8:08 PM CDT
Astronomical Twilight 5:03 AM CDT 8:44 PM CDT
Moon 2:19 AM CDT (9/19) 4:41 PM CDT (9/19)
Length of Visible Light 13h 19m
Length of Day
12h 19m
Tomorrow will be 3m 10s shorter.
Waning Crescent, 15% of the Moon is Illuminated
Today
Waning Crescent
Sep 24
New
Oct 1
First Quarter
Oct 8
Full
Oct 15
Last Quarter

Today's Extremes

State Highs State Lows

Community

WunderPhotos

Upload Photos

1,754,775 photos uploaded!

WunderBlogs® & News

Nearby

Snow Depth

Station Depth Elevation
No new snow has been reported.

Earthquake Activity

City Distance Mag. Time & Date
No recent earthquake activity has been reported nearby.
Minimum magnitude displayed is 2.5.

Coastal Water Temperatures

Place Temperature
No Stations Reporting

Nearby Weather Stations